Time;durP1;ratioP1;P1;durP2;ratioP2;P2;SDS_P1;SDS_P2;PMS_P1;PMS_P2;Temp;Humidity;BMP_temperature;BMP_pressure;BME280_temperature;BME280_humidity;BME280_pressure;Samples;Min_cycle;Max_cycle;Signal;HPM_P1;HPM_P2
2021/06/17 00:01:24;;;;;;;4.60;4.00;;;18.70;99.90;;;;;;5067792;28;20462;-67
2021/06/17 00:03:51;;;;;;;4.10;3.80;;;18.70;99.90;;;;;;5067968;28;20466;-67
2021/06/17 00:06:18;;;;;;;4.83;4.37;;;18.60;99.90;;;;;;5068483;28;20898;-66
2021/06/17 00:08:44;;;;;;;4.40;4.00;;;18.60;99.90;;;;;;5070540;28;20489;-67
2021/06/17 00:11:11;;;;;;;4.80;4.30;;;18.50;99.90;;;;;;5068653;28;20802;-67
2021/06/17 00:13:39;;;;;;;4.97;4.50;;;18.50;99.90;;;;;;5070188;28;20463;-67
2021/06/17 00:16:09;;;;;;;4.30;3.90;;;18.50;99.90;;;;;;5062838;28;20460;-67
2021/06/17 00:18:36;;;;;;;5.80;4.43;;;18.40;99.90;;;;;;5050607;28;20570;-67
2021/06/17 00:21:03;;;;;;;6.43;3.90;;;18.40;99.90;;;;;;5050313;28;20466;-67
2021/06/17 00:23:31;;;;;;;5.70;5.20;;;18.40;99.90;;;;;;5050779;28;20463;-67
2021/06/17 00:25:58;;;;;;;5.83;4.37;;;18.30;99.90;;;;;;5050658;28;20542;-67
2021/06/17 00:28:26;;;;;;;5.73;4.97;;;18.30;99.90;;;;;;5050686;28;21216;-67
2021/06/17 00:30:53;;;;;;;5.60;4.70;;;18.20;99.90;;;;;;5050289;28;20976;-66
2021/06/17 00:33:21;;;;;;;4.97;4.27;;;18.20;99.90;;;;;;5050513;28;20460;-67
2021/06/17 00:35:49;;;;;;;4.50;4.10;;;18.20;99.90;;;;;;5050467;28;20467;-66
2021/06/17 00:38:16;;;;;;;4.30;3.70;;;18.20;99.90;;;;;;5050469;28;20549;-67
2021/06/17 00:40:44;;;;;;;4.57;4.17;;;18.10;99.90;;;;;;5050340;28;20826;-67
2021/06/17 00:43:11;;;;;;;5.20;4.07;;;18.10;99.90;;;;;;5050760;28;20837;-67
2021/06/17 00:45:42;;;;;;;5.33;4.83;;;18.00;99.90;;;;;;5050494;28;20467;-66
2021/06/17 00:48:10;;;;;;;4.70;4.30;;;18.00;99.90;;;;;;5050373;28;20494;-67
2021/06/17 00:50:41;;;;;;;5.03;4.13;;;18.00;99.90;;;;;;5050158;28;20471;-67
2021/06/17 00:53:10;;;;;;;4.77;4.37;;;18.00;99.90;;;;;;5050584;28;20469;-67
2021/06/17 00:55:38;;;;;;;5.10;4.60;;;17.90;99.90;;;;;;5050151;28;20463;-66
2021/06/17 00:58:05;;;;;;;4.23;3.80;;;17.90;99.90;;;;;;5050349;28;20455;-67
2021/06/17 01:00:31;;;;;;;5.13;4.43;;;17.90;99.90;;;;;;5050699;28;20546;-67
2021/06/17 01:02:58;;;;;;;5.47;4.20;;;17.80;99.90;;;;;;5049963;28;20552;-67
2021/06/17 01:05:26;;;;;;;5.53;4.70;;;17.80;99.90;;;;;;5050422;28;20459;-67
2021/06/17 01:08:15;;;;;;;4.40;4.00;;;17.80;99.90;;;;;;5049785;28;20483;-67
2021/06/17 01:10:49;;;;;;;6.90;4.40;;;17.80;99.90;;;;;;5051806;28;20550;-65
2021/06/17 01:13:21;;;;;;;4.83;4.43;;;17.80;99.90;;;;;;5054338;28;20858;-67
2021/06/17 01:15:55;;;;;;;5.87;4.60;;;17.70;99.90;;;;;;5054077;28;20947;-67
2021/06/17 01:18:24;;;;;;;7.03;4.47;;;17.70;99.90;;;;;;5054175;28;20489;-67
2021/06/17 01:20:54;;;;;;;8.10;4.70;;;17.60;99.90;;;;;;5053485;28;20965;-66
2021/06/17 01:23:49;;;;;;;5.10;4.03;;;17.60;99.90;;;;;;5054325;28;20466;-67
2021/06/17 01:26:21;;;;;;;5.27;4.00;;;17.60;99.90;;;;;;5053978;28;21029;-67
2021/06/17 01:28:52;;;;;;;5.20;4.70;;;17.60;99.90;;;;;;5053926;28;20471;-67
2021/06/17 01:31:22;;;;;;;5.00;4.27;;;17.60;99.90;;;;;;5053601;28;20842;-65
2021/06/17 01:33:51;;;;;;;5.80;4.70;;;17.50;99.90;;;;;;5053954;28;20978;-67
2021/06/17 01:36:22;;;;;;;4.73;4.33;;;17.50;99.90;;;;;;5053868;28;20459;-67
2021/06/17 01:38:53;;;;;;;4.80;3.90;;;17.40;99.90;;;;;;5053494;28;20471;-67
2021/06/17 01:41:22;;;;;;;5.00;4.50;;;17.40;99.90;;;;;;5053663;28;20835;-67
2021/06/17 01:43:50;;;;;;;6.30;4.27;;;17.40;99.90;;;;;;5053375;28;20460;-67
2021/06/17 01:46:17;;;;;;;5.80;5.30;;;17.40;99.90;;;;;;5053706;28;21096;-67
2021/06/17 01:48:46;;;;;;;4.60;4.20;;;17.30;99.90;;;;;;5053342;28;20491;-67
2021/06/17 01:51:15;;;;;;;5.17;4.77;;;17.30;99.90;;;;;;5053059;28;20456;-66
2021/06/17 01:53:42;;;;;;;5.17;4.70;;;17.30;99.90;;;;;;5053507;28;20482;-66
2021/06/17 01:56:10;;;;;;;6.07;5.20;;;17.20;99.90;;;;;;5053680;28;21118;-67
2021/06/17 01:58:37;;;;;;;4.90;4.17;;;17.20;99.90;;;;;;5053315;28;20479;-67
2021/06/17 02:01:06;;;;;;;5.33;4.83;;;17.20;99.90;;;;;;5053077;28;20467;-66
2021/06/17 02:03:34;;;;;;;5.37;4.87;;;17.20;99.90;;;;;;5053280;28;20459;-66
2021/06/17 02:06:02;;;;;;;5.40;4.90;;;17.20;99.90;;;;;;5053384;28;20956;-67
2021/06/17 02:08:28;;;;;;;6.00;4.20;;;17.20;99.90;;;;;;5052922;28;21020;-66
2021/06/17 02:10:56;;;;;;;5.33;4.27;;;17.20;99.90;;;;;;5052804;28;20474;-66
2021/06/17 02:13:23;;;;;;;4.57;4.17;;;17.20;99.90;;;;;;5053009;28;20474;-67
2021/06/17 02:15:51;;;;;;;5.00;4.60;;;17.10;99.90;;;;;;5052905;28;20471;-66
2021/06/17 02:18:25;;;;;;;7.83;4.80;;;17.10;99.90;;;;;;5053168;28;20486;-66
2021/06/17 02:20:52;;;;;;;5.70;4.80;;;17.10;99.90;;;;;;5052193;28;20489;-67
2021/06/17 02:23:20;;;;;;;4.60;4.17;;;17.10;99.90;;;;;;5052959;28;20470;-67
2021/06/17 02:25:51;;;;;;;5.33;4.83;;;17.00;99.90;;;;;;5052711;28;20467;-67
2021/06/17 02:28:21;;;;;;;5.07;4.07;;;17.00;99.90;;;;;;5052873;28;20483;-67
2021/06/17 02:30:53;;;;;;;5.63;4.77;;;17.00;99.90;;;;;;5052359;28;20463;-67
2021/06/17 02:33:23;;;;;;;7.40;4.73;;;17.00;99.90;;;;;;5052987;28;20459;-67
2021/06/17 02:35:53;;;;;;;7.70;5.20;;;16.90;99.90;;;;;;5052664;28;20460;-68
2021/06/17 02:38:26;;;;;;;4.97;4.53;;;16.90;99.90;;;;;;5052533;28;21137;-66
2021/06/17 02:40:59;;;;;;;5.40;4.80;;;16.90;99.90;;;;;;5052369;28;20845;-66
2021/06/17 02:43:26;;;;;;;5.03;4.63;;;16.90;99.90;;;;;;5052556;28;20493;-67
2021/06/17 02:45:55;;;;;;;4.80;4.30;;;16.80;99.90;;;;;;5052490;28;20468;-67
2021/06/17 02:48:23;;;;;;;6.57;4.37;;;16.80;99.90;;;;;;5052474;28;20487;-67
2021/06/17 02:50:50;;;;;;;4.50;3.97;;;16.80;99.90;;;;;;5051963;28;20462;-67
2021/06/17 02:53:16;;;;;;;5.33;4.40;;;16.80;99.90;;;;;;5052531;28;20470;-66
2021/06/17 02:55:43;;;;;;;5.30;4.80;;;16.80;99.90;;;;;;5052230;28;20464;-67
2021/06/17 02:58:31;;;;;;;5.97;5.20;;;16.70;99.90;;;;;;5052163;28;20504;-66
2021/06/17 03:01:21;;;;;;;5.50;5.00;;;16.70;99.90;;;;;;5051924;28;20835;-67
2021/06/17 03:03:53;;;;;;;4.70;4.30;;;16.60;99.90;;;;;;5052256;28;20547;-66
2021/06/17 03:06:25;;;;;;;5.10;4.70;;;16.60;99.90;;;;;;5052427;28;20459;-66
2021/06/17 03:08:56;;;;;;;5.30;4.80;;;16.60;99.90;;;;;;5051857;28;20484;-66
2021/06/17 03:11:25;;;;;;;6.00;5.40;;;16.50;99.90;;;;;;5051970;28;20459;-67
2021/06/17 03:13:57;;;;;;;4.60;4.20;;;16.60;99.90;;;;;;5051570;28;20470;-67
2021/06/17 03:16:30;;;;;;;5.03;4.57;;;16.50;99.90;;;;;;5052021;28;20467;-66
2021/06/17 03:19:01;;;;;;;4.83;4.43;;;16.50;99.90;;;;;;5051800;28;20843;-67
2021/06/17 03:21:30;;;;;;;4.93;4.53;;;16.50;99.90;;;;;;5051717;28;20459;-67
2021/06/17 03:23:58;;;;;;;4.87;4.10;;;16.50;99.90;;;;;;5051990;28;20460;-67
2021/06/17 03:26:27;;;;;;;5.33;4.87;;;16.50;99.90;;;;;;5051577;28;20542;-66
2021/06/17 03:28:57;;;;;;;4.97;4.57;;;16.50;99.90;;;;;;5051357;28;21006;-67
2021/06/17 03:31:26;;;;;;;5.93;5.03;;;16.50;99.90;;;;;;5051304;28;20466;-67
2021/06/17 03:33:55;;;;;;;4.80;4.30;;;16.50;99.90;;;;;;5051525;28;20459;-67
2021/06/17 03:36:25;;;;;;;4.40;4.00;;;16.40;99.90;;;;;;5051765;28;20470;-67
2021/06/17 03:38:53;;;;;;;4.83;4.33;;;16.40;99.90;;;;;;5051367;28;20479;-67
2021/06/17 03:41:21;;;;;;;4.43;4.03;;;16.50;99.90;;;;;;5051305;28;20981;-66
2021/06/17 03:43:49;;;;;;;4.53;4.10;;;16.50;99.90;;;;;;5051444;28;20459;-67
2021/06/17 03:46:19;;;;;;;4.40;4.10;;;16.50;99.90;;;;;;5051433;28;20843;-67
2021/06/17 03:48:47;;;;;;;4.83;4.33;;;16.50;99.90;;;;;;5051474;28;20487;-67
2021/06/17 03:51:14;;;;;;;5.27;4.50;;;16.60;99.90;;;;;;5050857;28;21130;-66
2021/06/17 03:53:45;;;;;;;4.63;4.17;;;16.60;99.90;;;;;;5051941;28;20478;-65
2021/06/17 03:56:13;;;;;;;5.88;4.68;;;16.60;99.90;;;;;;5050706;28;20464;-65
2021/06/17 03:58:42;;;;;;;5.20;3.90;;;16.60;99.90;;;;;;5068005;28;20235;-65
2021/06/17 04:01:10;;;;;;;4.50;4.10;;;16.60;99.90;;;;;;5070476;28;20974;-65
2021/06/17 04:03:37;;;;;;;5.30;4.80;;;16.70;99.90;;;;;;5070518;28;20498;-65
2021/06/17 04:06:05;;;;;;;4.47;4.07;;;16.70;99.90;;;;;;5069846;28;20466;-65
2021/06/17 04:08:39;;;;;;;5.30;4.70;;;16.70;99.90;;;;;;5077639;28;20494;-64
2021/06/17 04:11:08;;;;;;;4.70;4.10;;;16.70;99.90;;;;;;5078451;28;20464;-65
2021/06/17 04:13:39;;;;;;;4.57;4.17;;;16.70;99.90;;;;;;5073443;28;20512;-64
2021/06/17 04:16:07;;;;;;;4.63;4.23;;;16.80;99.90;;;;;;5069393;28;20455;-65
2021/06/17 04:18:36;;;;;;;5.70;4.70;;;16.80;99.90;;;;;;5071236;28;20470;-65
2021/06/17 04:21:03;;;;;;;7.90;4.60;;;16.80;99.90;;;;;;5070215;28;20450;-65
2021/06/17 04:23:31;;;;;;;4.50;4.10;;;16.90;99.90;;;;;;5071066;28;20461;-65
2021/06/17 04:25:58;;;;;;;4.30;3.90;;;16.90;99.90;;;;;;5070929;28;20463;-65
2021/06/17 04:28:29;;;;;;;4.20;3.80;;;17.00;99.90;;;;;;5068823;28;20497;-65
2021/06/17 04:30:58;;;;;;;4.80;4.40;;;17.00;99.90;;;;;;5068798;28;20462;-65
2021/06/17 04:33:26;;;;;;;4.40;4.00;;;17.00;99.90;;;;;;5068903;28;20985;-65
2021/06/17 04:35:55;;;;;;;6.00;4.33;;;17.10;99.90;;;;;;5069623;28;20458;-64
2021/06/17 04:38:22;;;;;;;4.83;4.33;;;17.10;99.90;;;;;;5070215;28;20478;-65
2021/06/17 04:40:50;;;;;;;6.47;4.20;;;17.10;99.90;;;;;;5069928;28;20463;-64
2021/06/17 04:43:21;;;;;;;5.03;4.50;;;17.20;99.90;;;;;;5070497;28;20466;-65
2021/06/17 04:45:51;;;;;;;4.27;3.97;;;17.20;99.90;;;;;;5070457;28;20553;-65
2021/06/17 04:48:18;;;;;;;4.53;4.13;;;17.30;99.90;;;;;;5070230;28;20486;-64
2021/06/17 04:50:46;;;;;;;4.70;4.30;;;17.40;99.90;;;;;;5070385;28;20458;-65
2021/06/17 04:53:15;;;;;;;5.60;4.33;;;17.40;99.90;;;;;;5070542;28;20953;-65
2021/06/17 04:55:45;;;;;;;5.10;4.60;;;17.60;99.90;;;;;;5070571;28;20458;-65
2021/06/17 04:58:12;;;;;;;6.83;4.83;;;17.60;99.90;;;;;;5070222;28;20468;-64
2021/06/17 05:00:39;;;;;;;7.33;4.50;;;17.70;99.90;;;;;;5070390;28;20476;-64
2021/06/17 05:03:08;;;;;;;6.40;4.70;;;17.80;99.90;;;;;;5070181;28;20946;-64
2021/06/17 05:05:34;;;;;;;6.70;4.90;;;17.80;99.90;;;;;;5070383;28;20957;-64
2021/06/17 05:10:53;;;;;;;4.57;4.00;;;18.00;99.90;;;;;;5012789;28;20442;-64
2021/06/17 05:13:22;;;;;;;4.80;4.17;;;18.10;99.90;;;;;;5070203;28;20450;-65
2021/06/17 05:15:49;;;;;;;4.80;4.30;;;18.10;99.90;;;;;;5069741;28;20454;-65
2021/06/17 05:18:18;;;;;;;4.83;4.20;;;18.20;99.90;;;;;;5063681;28;20471;-65
2021/06/17 05:20:44;;;;;;;4.63;4.17;;;18.30;99.90;;;;;;5062281;28;20455;-65
2021/06/17 05:23:13;;;;;;;4.43;3.80;;;18.40;99.90;;;;;;5058480;28;20460;-65
2021/06/17 05:25:41;;;;;;;4.43;4.03;;;18.50;99.90;;;;;;5059384;28;20993;-65
2021/06/17 05:28:08;;;;;;;6.23;4.37;;;18.50;99.90;;;;;;5060388;28;20556;-65
2021/06/17 05:30:35;;;;;;;4.47;4.13;;;18.60;99.90;;;;;;5057727;28;20461;-65
2021/06/17 05:33:02;;;;;;;4.57;4.03;;;18.80;99.90;;;;;;5060358;28;20946;-65
2021/06/17 05:35:30;;;;;;;6.43;4.40;;;18.90;99.90;;;;;;5059707;28;20981;-65
2021/06/17 05:37:56;;;;;;;5.13;4.33;;;19.00;99.90;;;;;;5063825;28;20465;-65
2021/06/17 05:40:23;;;;;;;4.17;3.87;;;19.10;99.90;;;;;;5070120;28;20462;-65
2021/06/17 05:42:50;;;;;;;4.43;3.90;;;19.20;99.90;;;;;;5069560;28;20488;-65
2021/06/17 05:45:17;;;;;;;4.33;4.03;;;19.30;99.90;;;;;;5069941;28;20473;-65
2021/06/17 05:47:43;;;;;;;4.03;3.63;;;19.50;99.90;;;;;;5070190;28;20474;-65
2021/06/17 05:50:11;;;;;;;4.53;3.80;;;19.60;99.90;;;;;;5068874;28;20486;-65
2021/06/17 05:52:39;;;;;;;4.83;4.37;;;19.70;99.90;;;;;;5069431;28;20865;-65
2021/06/17 05:55:07;;;;;;;4.80;4.33;;;19.90;99.90;;;;;;5069221;28;20463;-65
2021/06/17 05:57:35;;;;;;;3.90;3.57;;;20.00;99.90;;;;;;5072747;28;20463;-65
2021/06/17 06:00:02;;;;;;;5.20;4.50;;;20.10;99.90;;;;;;5073097;28;20519;-65
2021/06/17 06:02:29;;;;;;;3.93;3.60;;;20.20;99.90;;;;;;5072798;28;20574;-65
2021/06/17 06:04:56;;;;;;;4.10;3.40;;;20.30;99.90;;;;;;5073219;28;20469;-67
2021/06/17 06:07:22;;;;;;;3.90;3.60;;;20.50;99.90;;;;;;5073337;28;20470;-66
2021/06/17 06:09:50;;;;;;;6.80;3.50;;;20.70;99.90;;;;;;5073079;28;20502;-66
2021/06/17 06:12:17;;;;;;;3.93;3.43;;;20.80;99.90;;;;;;5071856;28;20459;-65
2021/06/17 06:14:44;;;;;;;6.37;3.80;;;20.90;99.90;;;;;;5072572;28;20469;-65
2021/06/17 06:17:11;;;;;;;5.07;3.93;;;21.00;99.90;;;;;;5073202;28;20836;-65
2021/06/17 06:19:37;;;;;;;4.50;3.80;;;21.00;99.90;;;;;;5072885;28;20493;-65
2021/06/17 06:22:05;;;;;;;4.30;3.77;;;21.10;99.90;;;;;;5072371;28;20469;-65
2021/06/17 06:24:33;;;;;;;4.10;3.50;;;21.20;99.90;;;;;;5073018;28;20895;-65
2021/06/17 06:27:01;;;;;;;6.03;3.57;;;21.20;99.90;;;;;;5072601;28;20477;-65
2021/06/17 06:29:28;;;;;;;4.33;3.63;;;21.30;99.90;;;;;;5072909;28;20497;-65
2021/06/17 06:31:55;;;;;;;3.63;3.33;;;21.50;99.90;;;;;;5072402;28;20478;-65
2021/06/17 06:34:22;;;;;;;4.47;3.50;;;21.60;99.90;;;;;;5073022;28;20461;-65
2021/06/17 06:36:49;;;;;;;5.13;3.23;;;21.60;99.90;;;;;;5072673;28;20941;-65
2021/06/17 06:39:16;;;;;;;4.03;3.60;;;21.70;99.90;;;;;;5072709;28;20483;-65
2021/06/17 06:41:44;;;;;;;4.00;3.60;;;21.90;99.90;;;;;;5072556;28;20489;-66
2021/06/17 06:44:12;;;;;;;3.90;3.60;;;22.10;99.90;;;;;;5073265;28;20459;-66
2021/06/17 06:46:39;;;;;;;4.30;3.90;;;22.30;99.90;;;;;;5072636;28;20992;-66
2021/06/17 06:49:06;;;;;;;7.00;4.57;;;22.40;99.90;;;;;;5072398;28;20494;-66
2021/06/17 06:51:36;;;;;;;4.27;3.97;;;22.40;99.90;;;;;;5072302;28;20459;-66
2021/06/17 06:54:03;;;;;;;5.37;3.80;;;22.50;99.90;;;;;;5072485;28;20463;-66
2021/06/17 06:56:30;;;;;;;4.10;3.80;;;22.60;99.90;;;;;;5072741;28;20525;-66
2021/06/17 06:58:56;;;;;;;4.20;3.80;;;22.60;99.90;;;;;;5071862;28;20491;-65
2021/06/17 07:01:24;;;;;;;3.97;3.57;;;22.70;99.90;;;;;;5072326;28;20459;-65
2021/06/17 07:03:51;;;;;;;4.23;3.87;;;22.70;99.90;;;;;;5071682;28;20978;-66
2021/06/17 07:06:18;;;;;;;4.63;3.87;;;22.70;99.90;;;;;;5072558;28;20470;-66
2021/06/17 07:08:44;;;;;;;5.37;3.53;;;22.80;99.90;;;;;;5070805;28;20485;-65
2021/06/17 07:11:11;;;;;;;3.40;3.10;;;22.90;99.90;;;;;;5071520;28;20465;-66
2021/06/17 07:13:38;;;;;;;4.13;3.73;;;23.00;99.90;;;;;;5072160;28;20484;-66
2021/06/17 07:16:05;;;;;;;3.90;3.60;;;23.10;99.90;;;;;;5071754;28;20460;-66
2021/06/17 07:18:34;;;;;;;3.37;3.17;;;23.30;99.90;;;;;;5071921;28;20466;-66
2021/06/17 07:21:01;;;;;;;4.43;3.50;;;23.30;99.90;;;;;;5071511;28;20459;-65
2021/06/17 07:23:29;;;;;;;4.43;3.40;;;23.40;99.90;;;;;;5083262;28;20457;-66
2021/06/17 07:25:56;;;;;;;5.93;3.53;;;23.50;99.90;;;;;;5092155;28;20459;-66
2021/06/17 07:28:22;;;;;;;8.33;4.10;;;23.70;99.40;;;;;;5091939;28;20485;-66
2021/06/17 07:30:49;;;;;;;3.33;3.03;;;23.90;99.60;;;;;;5091552;28;20466;-66
2021/06/17 07:33:16;;;;;;;3.83;3.37;;;24.10;99.80;;;;;;5092067;28;20458;-65
2021/06/17 07:35:44;;;;;;;3.70;3.00;;;24.30;99.90;;;;;;5091562;28;20460;-66
2021/06/17 07:38:11;;;;;;;5.60;3.67;;;24.40;99.60;;;;;;5091895;28;20462;-65
2021/06/17 07:40:40;;;;;;;3.70;3.40;;;24.50;99.60;;;;;;5091709;28;20458;-66
2021/06/17 07:43:08;;;;;;;3.87;3.57;;;24.60;99.90;;;;;;5091786;28;20491;-65
2021/06/17 07:45:35;;;;;;;3.07;2.77;;;24.70;99.90;;;;;;5091837;28;20458;-65
2021/06/17 07:48:02;;;;;;;3.50;3.20;;;24.80;99.90;;;;;;5091433;28;20803;-66
2021/06/17 07:50:28;;;;;;;4.37;3.73;;;24.90;99.80;;;;;;5091469;28;20477;-67
2021/06/17 07:52:57;;;;;;;4.07;3.77;;;24.90;99.90;;;;;;5090780;28;20458;-67
2021/06/17 07:55:24;;;;;;;3.70;3.43;;;25.00;99.70;;;;;;5091125;28;20881;-67
2021/06/17 07:57:51;;;;;;;3.60;3.30;;;25.10;99.10;;;;;;5073291;28;20455;-67
2021/06/17 08:00:18;;;;;;;3.77;3.47;;;25.20;99.90;;;;;;5070458;28;20833;-67
2021/06/17 08:02:45;;;;;;;3.87;3.57;;;25.30;99.90;;;;;;5070403;28;20465;-67
2021/06/17 08:05:12;;;;;;;4.00;3.30;;;25.40;99.90;;;;;;5071070;28;20471;-67
2021/06/17 08:07:40;;;;;;;4.50;4.10;;;25.50;99.90;;;;;;5070574;28;20459;-67
2021/06/17 08:10:09;;;;;;;4.33;3.83;;;25.60;99.90;;;;;;5070666;28;20490;-67
2021/06/17 08:12:36;;;;;;;3.77;3.47;;;25.70;99.90;;;;;;5070190;28;20459;-67
2021/06/17 08:15:03;;;;;;;3.73;3.40;;;25.80;99.90;;;;;;5070785;28;20458;-67
2021/06/17 08:17:30;;;;;;;3.60;3.30;;;26.00;99.80;;;;;;5070657;28;20469;-67
2021/06/17 08:19:57;;;;;;;3.73;3.43;;;26.00;99.90;;;;;;5069887;28;21128;-67
2021/06/17 08:22:27;;;;;;;4.10;3.60;;;26.10;99.90;;;;;;5070361;28;20465;-67
2021/06/17 08:24:54;;;;;;;5.10;3.70;;;26.20;99.90;;;;;;5069973;28;20459;-67
2021/06/17 08:27:22;;;;;;;3.37;3.07;;;26.30;98.30;;;;;;5070842;28;20779;-67
2021/06/17 08:29:49;;;;;;;3.90;3.43;;;26.40;98.70;;;;;;5070152;28;20524;-67
2021/06/17 08:32:16;;;;;;;5.90;3.50;;;26.50;99.90;;;;;;5069958;28;20465;-67
2021/06/17 08:34:42;;;;;;;5.03;3.20;;;26.50;98.20;;;;;;5070346;28;20516;-67
2021/06/17 08:37:09;;;;;;;3.57;3.27;;;26.70;99.00;;;;;;5070219;28;20980;-67
2021/06/17 08:39:36;;;;;;;5.60;3.33;;;26.70;99.90;;;;;;5070448;28;20875;-67
2021/06/17 08:42:04;;;;;;;4.77;3.90;;;26.80;99.20;;;;;;5070130;28;20536;-67
2021/06/17 08:44:33;;;;;;;8.23;3.53;;;26.90;99.90;;;;;;5070251;28;20839;-67
2021/06/17 08:47:00;;;;;;;4.30;3.40;;;27.00;99.90;;;;;;5070325;28;20462;-67
2021/06/17 08:49:27;;;;;;;3.57;3.30;;;27.10;99.90;;;;;;5070276;28;20490;-67
2021/06/17 08:51:57;;;;;;;3.63;3.20;;;27.20;99.90;;;;;;5069721;28;20458;-67
2021/06/17 08:54:26;;;;;;;3.47;3.17;;;27.30;99.90;;;;;;5070544;28;20461;-67
2021/06/17 08:56:53;;;;;;;3.93;3.30;;;27.40;99.90;;;;;;5069856;28;20986;-67
2021/06/17 08:59:29;;;;;;;5.10;3.33;;;27.50;99.90;;;;;;5070243;28;20484;-67
2021/06/17 09:02:00;;;;;;;5.13;3.37;;;27.60;99.90;;;;;;5069539;28;20462;-67
2021/06/17 09:04:28;;;;;;;4.00;3.63;;;27.70;99.90;;;;;;5070070;28;20465;-67
2021/06/17 09:07:03;;;;;;;4.83;3.60;;;27.80;99.90;;;;;;5070032;28;20893;-67
2021/06/17 09:09:34;;;;;;;4.10;3.70;;;27.90;99.90;;;;;;5069835;28;20560;-67
2021/06/17 09:12:01;;;;;;;4.27;3.40;;;28.00;99.90;;;;;;5069701;28;20473;-67
2021/06/17 09:14:28;;;;;;;3.60;3.00;;;28.10;99.90;;;;;;5070182;28;20466;-67
2021/06/17 09:17:03;;;;;;;6.10;3.80;;;28.10;99.90;;;;;;5069648;28;20461;-67
2021/06/17 09:19:42;;;;;;;3.90;3.50;;;28.20;99.90;;;;;;5069339;28;20558;-67
2021/06/17 09:22:12;;;;;;;3.53;3.23;;;28.30;99.90;;;;;;5069546;28;20460;-67
2021/06/17 09:24:40;;;;;;;5.70;3.10;;;28.40;99.90;;;;;;5070054;28;20460;-67
2021/06/17 09:27:25;;;;;;;3.50;3.20;;;28.50;99.80;;;;;;5069965;28;20469;-67
2021/06/17 09:29:56;;;;;;;3.70;3.40;;;28.50;99.90;;;;;;5069653;28;20489;-67
2021/06/17 09:32:25;;;;;;;3.47;3.27;;;28.40;96.40;;;;;;5072725;28;20862;-67
2021/06/17 09:34:52;;;;;;;3.87;3.37;;;28.40;96.00;;;;;;5073184;28;20460;-67
2021/06/17 09:37:29;;;;;;;3.60;3.30;;;28.50;96.90;;;;;;5073832;28;20464;-67
2021/06/17 09:39:57;;;;;;;3.50;3.20;;;28.60;97.60;;;;;;5073052;28;20480;-67
2021/06/17 09:42:30;;;;;;;3.53;3.23;;;28.80;97.70;;;;;;5073308;28;20465;-67
2021/06/17 09:44:58;;;;;;;3.77;3.40;;;28.80;98.10;;;;;;5073571;28;21174;-67
2021/06/17 09:47:33;;;;;;;5.40;3.23;;;29.00;98.40;;;;;;5073444;28;20494;-67
2021/06/17 09:50:02;;;;;;;4.10;3.60;;;29.10;99.60;;;;;;5073173;28;20506;-66
2021/06/17 09:52:38;;;;;;;5.10;4.13;;;29.30;99.40;;;;;;5072780;28;21039;-67
2021/06/17 09:55:06;;;;;;;3.80;3.50;;;29.40;99.90;;;;;;5073418;28;20471;-67
2021/06/17 09:57:36;;;;;;;5.30;3.70;;;29.50;99.90;;;;;;5073492;28;20834;-67
2021/06/17 10:00:10;;;;;;;4.17;3.67;;;29.50;99.20;;;;;;5072992;28;20919;-67
2021/06/17 10:02:39;;;;;;;4.63;4.10;;;29.50;99.10;;;;;;5072908;28;20953;-67
2021/06/17 10:05:12;;;;;;;3.83;3.53;;;29.20;97.70;;;;;;5072836;28;20473;-67
2021/06/17 10:07:39;;;;;;;4.13;3.70;;;29.00;98.50;;;;;;5073121;28;20530;-67
2021/06/17 10:10:07;;;;;;;4.03;3.63;;;28.80;99.10;;;;;;5073210;28;20501;-67
2021/06/17 10:12:35;;;;;;;4.50;3.80;;;28.60;99.30;;;;;;5072443;28;20461;-67
2021/06/17 10:15:02;;;;;;;5.70;4.10;;;28.30;98.30;;;;;;5072836;28;20461;-66
2021/06/17 10:17:29;;;;;;;3.83;3.53;;;28.10;99.10;;;;;;5072986;28;20911;-66
2021/06/17 10:19:58;;;;;;;4.33;3.83;;;28.00;99.50;;;;;;5072367;28;20479;-65
2021/06/17 10:22:25;;;;;;;5.53;4.30;;;28.00;99.90;;;;;;5072732;28;20458;-66
2021/06/17 10:24:52;;;;;;;5.00;4.27;;;28.10;99.90;;;;;;5072345;28;21022;-66
2021/06/17 10:27:30;;;;;;;6.50;4.10;;;28.30;99.90;;;;;;5072996;28;20465;-67
2021/06/17 10:29:57;;;;;;;6.40;3.80;;;28.50;99.90;;;;;;5072277;28;20481;-66
2021/06/17 10:32:33;;;;;;;5.63;3.87;;;28.70;99.90;;;;;;5072490;28;20462;-67
2021/06/17 10:35:02;;;;;;;4.60;4.00;;;28.90;99.90;;;;;;5072531;28;20470;-65
2021/06/17 10:37:31;;;;;;;5.10;4.60;;;29.00;99.90;;;;;;5072445;28;20463;-66
2021/06/17 10:40:04;;;;;;;6.17;4.60;;;29.20;99.90;;;;;;5072264;28;20484;-66
2021/06/17 10:42:41;;;;;;;4.97;4.00;;;29.30;99.90;;;;;;5072160;28;20455;-67
2021/06/17 10:45:11;;;;;;;6.90;4.20;;;29.40;99.90;;;;;;5072435;28;20460;-66
2021/06/17 10:48:07;;;;;;;4.87;4.37;;;29.60;99.90;;;;;;5072510;28;20518;-66
2021/06/17 10:50:47;;;;;;;7.63;4.13;;;29.70;99.90;;;;;;5072228;28;20479;-66
2021/06/17 10:53:33;;;;;;;4.30;3.90;;;29.80;99.90;;;;;;5066412;28;20455;-66
2021/06/17 10:56:06;;;;;;;4.50;4.10;;;29.90;98.00;;;;;;5071755;28;20462;-65
2021/06/17 10:59:04;;;;;;;4.20;3.90;;;30.00;97.70;;;;;;5072116;28;20492;-66
2021/06/17 11:01:40;;;;;;;5.87;4.80;;;30.00;98.10;;;;;;5071268;28;20451;-66
2021/06/17 11:04:13;;;;;;;4.83;4.43;;;30.10;98.40;;;;;;5068692;28;20455;-66
2021/06/17 11:07:19;;;;;;;4.60;4.30;;;30.20;98.70;;;;;;5053104;28;20460;-66
2021/06/17 11:10:00;;;;;;;5.13;4.27;;;30.30;99.60;;;;;;5055009;28;20480;-66
2021/06/17 11:12:59;;;;;;;5.10;4.70;;;30.40;96.90;;;;;;5051876;28;20456;-67
2021/06/17 11:15:40;;;;;;;4.37;3.97;;;30.50;97.50;;;;;;5064795;28;20543;-66
2021/06/17 11:18:07;;;;;;;5.30;4.33;;;30.60;96.20;;;;;;5071828;28;20464;-67
2021/06/17 11:20:39;;;;;;;4.07;3.70;;;30.70;98.00;;;;;;5071492;28;20543;-66
2021/06/17 11:23:06;;;;;;;4.47;4.07;;;30.70;97.80;;;;;;5056966;28;20480;-66
2021/06/17 11:25:39;;;;;;;5.90;4.30;;;30.80;97.30;;;;;;5054235;28;20458;-66
2021/06/17 11:28:07;;;;;;;4.60;4.30;;;30.90;97.50;;;;;;5068427;28;20527;-67
2021/06/17 11:31:01;;;;;;;6.20;4.20;;;31.00;95.60;;;;;;5068582;28;20481;-67
2021/06/17 11:33:45;;;;;;;4.70;4.30;;;31.00;95.70;;;;;;5057955;28;20523;-67
2021/06/17 11:36:17;;;;;;;8.47;4.43;;;31.00;95.80;;;;;;5059591;28;20555;-67
2021/06/17 11:38:44;;;;;;;4.30;3.90;;;31.00;95.90;;;;;;5060915;28;20505;-67
2021/06/17 11:41:16;;;;;;;4.20;3.90;;;31.10;97.10;;;;;;5058556;28;20487;-66
2021/06/17 11:43:43;;;;;;;8.27;4.30;;;31.20;97.80;;;;;;5052445;28;20449;-67
2021/06/17 11:46:21;;;;;;;4.60;4.20;;;31.20;97.70;;;;;;5070071;28;20496;-67
2021/06/17 11:48:56;;;;;;;4.70;4.30;;;31.30;95.80;;;;;;5070905;28;20524;-68
2021/06/17 11:51:23;;;;;;;6.33;4.60;;;31.30;94.70;;;;;;5070816;28;20527;-67
2021/06/17 11:53:55;;;;;;;6.60;4.50;;;31.30;97.20;;;;;;5065874;28;20457;-67
2021/06/17 11:56:28;;;;;;;4.90;4.13;;;31.30;91.30;;;;;;5061441;28;20988;-67
2021/06/17 11:58:55;;;;;;;5.10;4.53;;;31.20;94.20;;;;;;5056607;28;20483;-68
2021/06/17 12:01:22;;;;;;;7.97;4.33;;;31.30;94.70;;;;;;5050478;28;20954;-67
2021/06/17 12:03:57;;;;;;;4.63;4.23;;;31.30;95.50;;;;;;5052984;28;20947;-67
2021/06/17 12:06:24;;;;;;;5.20;4.47;;;31.30;96.60;;;;;;5067719;28;20464;-68
2021/06/17 12:09:06;;;;;;;6.10;4.27;;;31.40;96.40;;;;;;5059875;28;20476;-68
2021/06/17 12:11:35;;;;;;;5.27;4.43;;;31.50;96.80;;;;;;5061822;28;20607;-67
2021/06/17 12:14:04;;;;;;;5.83;4.70;;;31.50;98.40;;;;;;5055307;28;20531;-67
2021/06/17 12:16:31;;;;;;;4.93;4.40;;;31.60;97.90;;;;;;5057959;28;20971;-67
2021/06/17 12:18:58;;;;;;;6.50;4.53;;;31.70;97.50;;;;;;5067666;28;20484;-67
2021/06/17 12:21:28;;;;;;;5.60;5.10;;;31.70;94.30;;;;;;5061763;28;20457;-66
2021/06/17 12:23:56;;;;;;;8.20;4.97;;;31.80;94.30;;;;;;5070486;28;20523;-68
2021/06/17 12:26:29;;;;;;;9.50;5.60;;;31.80;95.50;;;;;;5067343;28;20463;-67
2021/06/17 12:29:01;;;;;;;6.80;6.20;;;31.80;96.20;;;;;;5070192;28;20483;-68
2021/06/17 12:31:29;;;;;;;17.27;6.93;;;31.90;94.80;;;;;;5064205;28;20482;-67
2021/06/17 12:34:11;;;;;;;11.33;5.53;;;31.90;96.50;;;;;;5068057;28;20465;-67
2021/06/17 12:36:37;;;;;;;5.90;4.57;;;31.90;96.60;;;;;;5062666;28;20459;-67
2021/06/17 12:39:09;;;;;;;9.33;4.53;;;32.00;94.30;;;;;;5068955;28;20476;-68
2021/06/17 12:41:41;;;;;;;7.17;4.70;;;32.00;93.70;;;;;;5062938;28;20450;-68
2021/06/17 12:44:10;;;;;;;5.47;5.00;;;32.10;95.20;;;;;;5058454;28;20469;-67
2021/06/17 12:46:40;;;;;;;4.90;4.50;;;32.10;97.20;;;;;;5050096;28;20454;-68
2021/06/17 12:49:28;;;;;;;5.33;4.53;;;32.10;95.70;;;;;;5058043;28;20926;-67
2021/06/17 12:52:03;;;;;;;5.93;4.90;;;32.10;95.60;;;;;;5049928;28;20490;-67
2021/06/17 12:54:32;;;;;;;5.30;4.80;;;32.10;95.10;;;;;;5049868;28;20497;-67
2021/06/17 12:57:01;;;;;;;5.20;4.70;;;32.20;94.80;;;;;;5050350;28;20831;-67
2021/06/17 12:59:41;;;;;;;4.70;4.30;;;32.30;96.00;;;;;;5051797;28;20493;-67
2021/06/17 13:02:10;;;;;;;5.40;4.90;;;32.30;95.40;;;;;;5067083;28;20461;-67
2021/06/17 13:04:38;;;;;;;4.60;4.20;;;32.40;94.30;;;;;;5057386;28;20583;-67